createdAt,value
2022-12-14T00:01:22.570Z,-2.71
2022-12-14T00:03:49.750Z,-2.55
2022-12-14T00:06:28.110Z,-2.88
2022-12-14T00:08:57.112Z,-2.52
2022-12-14T00:11:23.748Z,-2.51
2022-12-14T00:14:01.510Z,-2.29
2022-12-14T00:16:30.172Z,-2.38
2022-12-14T00:18:59.096Z,-2.37
2022-12-14T00:21:26.599Z,-2.15
2022-12-14T00:23:54.286Z,-2.06
2022-12-14T00:26:26.058Z,-2.16
2022-12-14T00:28:54.191Z,-2.18
2022-12-14T00:31:21.842Z,-2.46
2022-12-14T00:33:50.300Z,-2.26
2022-12-14T00:36:17.142Z,-2.02
2022-12-14T00:38:44.126Z,-2.14
2022-12-14T00:41:10.973Z,-2.45
2022-12-14T00:43:37.551Z,-2.54
2022-12-14T00:46:04.118Z,-2.40
2022-12-14T00:48:31.284Z,-2.39
2022-12-14T00:50:58.233Z,-2.21
2022-12-14T00:53:25.379Z,-2.21
2022-12-14T00:55:52.342Z,-2.22
2022-12-14T00:58:21.374Z,-2.24
2022-12-14T01:00:57.815Z,-2.29
2022-12-14T01:03:24.626Z,-2.18
2022-12-14T01:05:51.297Z,-2.22
2022-12-14T01:08:17.684Z,-2.37
2022-12-14T01:10:44.138Z,-2.66
2022-12-14T01:13:11.549Z,-2.76
2022-12-14T01:15:38.372Z,-2.77
2022-12-14T01:18:04.912Z,-2.41
2022-12-14T01:20:31.311Z,-2.68
2022-12-14T01:22:58.288Z,-2.47
2022-12-14T01:25:25.173Z,-2.76
2022-12-14T01:27:51.701Z,-2.62
2022-12-14T01:30:19.340Z,-2.76
2022-12-14T01:32:46.510Z,-2.66
2022-12-14T01:35:12.977Z,-2.75
2022-12-14T01:37:39.456Z,-2.61
2022-12-14T01:40:06.250Z,-2.41
2022-12-14T01:42:35.206Z,-2.35
2022-12-14T01:45:01.755Z,-2.46
2022-12-14T01:47:42.048Z,-2.81
2022-12-14T01:50:11.521Z,-2.63
2022-12-14T01:52:49.449Z,-2.33
2022-12-14T01:55:23.844Z,-2.05
2022-12-14T01:58:00.106Z,-2.32
2022-12-14T02:00:26.579Z,-2.20
2022-12-14T02:03:19.613Z,-2.17
2022-12-14T02:05:50.588Z,-2.10
2022-12-14T02:08:19.293Z,-2.17
2022-12-14T02:10:47.012Z,-2.09
2022-12-14T02:13:22.134Z,-2.02
2022-12-14T02:15:48.724Z,-1.98
2022-12-14T02:18:21.700Z,-1.87
2022-12-14T02:21:06.210Z,-1.77
2022-12-14T02:24:08.029Z,-1.87
2022-12-14T02:27:01.858Z,-1.99
2022-12-14T02:29:52.538Z,-1.99
2022-12-14T02:32:28.075Z,-2.05
2022-12-14T02:35:18.605Z,-2.10
2022-12-14T02:38:01.569Z,-1.93
2022-12-14T02:40:34.402Z,-1.93
2022-12-14T02:43:18.699Z,-2.06
2022-12-14T02:45:48.035Z,-1.97
2022-12-14T02:48:24.145Z,-1.99
2022-12-14T02:50:59.214Z,-1.82
2022-12-14T02:53:47.447Z,-1.82
2022-12-14T02:56:19.184Z,-1.85
2022-12-14T02:58:50.389Z,-1.86
2022-12-14T03:01:21.954Z,-1.80
2022-12-14T03:03:48.683Z,-1.92
2022-12-14T03:06:26.869Z,-2.02
2022-12-14T03:09:00.269Z,-1.89
2022-12-14T03:11:58.992Z,-1.98
2022-12-14T03:14:28.879Z,-1.94
2022-12-14T03:17:01.630Z,-1.83
2022-12-14T03:19:41.382Z,-1.75
2022-12-14T03:22:13.260Z,-1.67
2022-12-14T03:24:44.655Z,-1.78
2022-12-14T03:27:17.003Z,-1.71
2022-12-14T03:29:58.211Z,-1.73
2022-12-14T03:32:28.489Z,-1.72
2022-12-14T03:35:01.337Z,-1.82
2022-12-14T03:38:06.530Z,-1.68
2022-12-14T03:40:39.840Z,-1.74
2022-12-14T03:43:25.230Z,-1.83
2022-12-14T03:46:04.248Z,-1.82
2022-12-14T03:48:46.211Z,-1.81
2022-12-14T03:51:31.119Z,-2.15
2022-12-14T03:54:08.674Z,-2.27
2022-12-14T03:56:49.700Z,-2.17
2022-12-14T03:59:46.265Z,-2.14
2022-12-14T04:02:40.696Z,-1.96
2022-12-14T04:05:18.259Z,-2.14
2022-12-14T04:08:08.933Z,-2.31
2022-12-14T04:11:05.661Z,-2.04
2022-12-14T04:14:02.166Z,-1.89
2022-12-14T04:16:55.016Z,-1.87
2022-12-14T04:19:34.199Z,-1.87
2022-12-14T04:22:12.944Z,-2.44
2022-12-14T04:25:01.985Z,-2.45
2022-12-14T04:27:39.664Z,-2.28
2022-12-14T04:30:08.630Z,-2.00
2022-12-14T04:32:52.033Z,-2.14
2022-12-14T04:35:25.505Z,-2.26
2022-12-14T04:38:09.183Z,-2.37
2022-12-14T04:40:43.594Z,-2.38
2022-12-14T04:43:15.633Z,-2.07
2022-12-14T04:45:49.434Z,-2.05
2022-12-14T04:48:27.582Z,-2.13
2022-12-14T04:51:09.756Z,-2.35
2022-12-14T04:53:41.037Z,-2.41
2022-12-14T04:56:20.143Z,-2.50
2022-12-14T04:58:46.915Z,-2.34
2022-12-14T05:01:35.488Z,-2.15
2022-12-14T05:04:26.670Z,-2.08
2022-12-14T05:07:11.820Z,-2.01
2022-12-14T05:09:43.199Z,-2.32
2022-12-14T05:12:20.027Z,-2.17
2022-12-14T05:14:52.846Z,-2.19
2022-12-14T05:17:19.453Z,-2.31
2022-12-14T05:19:48.891Z,-2.42
2022-12-14T05:22:16.271Z,-2.56
2022-12-14T05:24:43.014Z,-2.48
2022-12-14T05:27:09.632Z,-2.26
2022-12-14T05:29:36.115Z,-2.13
2022-12-14T05:32:03.367Z,-2.18
2022-12-14T05:34:30.801Z,-2.30
2022-12-14T05:36:58.130Z,-2.26
2022-12-14T05:39:24.597Z,-2.32
2022-12-14T05:41:51.059Z,-2.29
2022-12-14T05:44:17.451Z,-2.35
2022-12-14T05:46:43.888Z,-2.17
2022-12-14T05:49:10.653Z,-2.05
2022-12-14T05:51:37.354Z,-2.20
2022-12-14T05:54:03.896Z,-2.21
2022-12-14T05:56:30.299Z,-1.96
2022-12-14T05:58:57.067Z,-2.08
2022-12-14T06:01:23.779Z,-1.96
2022-12-14T06:03:53.406Z,-1.96
2022-12-14T06:06:19.894Z,-2.05
2022-12-14T06:08:46.735Z,-2.11
2022-12-14T06:11:15.913Z,-2.41
2022-12-14T06:13:43.015Z,-2.42
2022-12-14T06:16:14.702Z,-2.28
2022-12-14T06:18:54.230Z,-2.31
2022-12-14T06:21:23.634Z,-2.16
2022-12-14T06:23:50.048Z,-2.22
2022-12-14T06:26:17.025Z,-2.16
2022-12-14T06:28:43.936Z,-2.09
2022-12-14T06:31:20.044Z,-2.01
2022-12-14T06:33:46.785Z,-2.19
2022-12-14T06:36:23.836Z,-1.91
2022-12-14T06:38:54.487Z,-2.37
2022-12-14T06:41:22.011Z,-2.35
2022-12-14T06:43:49.373Z,-2.24
2022-12-14T06:46:19.744Z,-2.17
2022-12-14T06:49:05.918Z,-2.16
2022-12-14T06:51:32.825Z,-2.24
2022-12-14T06:53:59.406Z,-2.10
2022-12-14T06:56:27.684Z,-1.83
2022-12-14T06:58:55.402Z,-2.08
2022-12-14T07:01:24.650Z,-2.02
2022-12-14T07:03:53.549Z,-1.87
2022-12-14T07:06:21.364Z,-1.82
2022-12-14T07:08:48.709Z,-1.73
2022-12-14T07:11:17.406Z,-1.78
2022-12-14T07:13:44.381Z,-1.73
2022-12-14T07:16:23.760Z,-1.79
2022-12-14T07:18:50.928Z,-1.90
2022-12-14T07:21:19.454Z,-1.90
2022-12-14T07:23:47.249Z,-1.54
2022-12-14T07:26:17.033Z,-1.62
2022-12-14T07:28:44.418Z,-1.36
2022-12-14T07:31:14.334Z,-1.83
2022-12-14T07:33:41.075Z,-1.77
2022-12-14T07:36:09.579Z,-1.65
2022-12-14T07:38:37.428Z,-1.52
2022-12-14T07:41:08.220Z,-1.62
2022-12-14T07:43:35.111Z,-1.47
2022-12-14T07:46:07.685Z,-1.48
2022-12-14T07:48:34.707Z,-1.67
2022-12-14T07:51:06.288Z,-1.67
2022-12-14T07:53:33.758Z,-1.64
2022-12-14T07:56:05.520Z,-1.63
2022-12-14T07:58:33.246Z,-1.59
2022-12-14T08:01:13.521Z,-1.41
2022-12-14T08:03:42.070Z,-1.31
2022-12-14T08:06:10.397Z,-1.21
2022-12-14T08:08:36.905Z,-1.23
2022-12-14T08:11:04.791Z,-1.14
2022-12-14T08:13:32.170Z,-0.77
2022-12-14T08:16:07.282Z,-0.99
2022-12-14T08:18:34.253Z,-0.73
2022-12-14T08:21:01.784Z,-0.71
2022-12-14T08:23:28.835Z,-0.55
2022-12-14T08:25:56.889Z,-0.79
2022-12-14T08:28:24.192Z,-0.94
2022-12-14T08:30:51.516Z,-0.84
2022-12-14T08:33:19.597Z,-0.64
2022-12-14T08:35:46.425Z,-0.70
2022-12-14T08:38:14.199Z,-0.46
2022-12-14T08:40:40.809Z,-0.13
2022-12-14T08:43:07.838Z,-0.47
2022-12-14T08:45:34.925Z,-0.67
2022-12-14T08:48:01.779Z,-0.63
2022-12-14T08:50:29.298Z,-0.49
2022-12-14T08:52:56.359Z,0.30
2022-12-14T08:55:28.259Z,0.61
2022-12-14T08:57:56.828Z,0.02
2022-12-14T09:00:23.378Z,-0.06
2022-12-14T09:02:51.288Z,0.09
2022-12-14T09:05:18.013Z,0.42
2022-12-14T09:07:44.429Z,0.59
2022-12-14T09:10:11.370Z,-0.26
2022-12-14T09:12:37.998Z,0.24
2022-12-14T09:15:04.805Z,-0.06
2022-12-14T09:17:31.492Z,0.43
2022-12-14T09:19:58.217Z,0.21
2022-12-14T09:22:24.795Z,0.51
2022-12-14T09:24:51.926Z,-0.15
2022-12-14T09:27:18.475Z,-0.46
2022-12-14T09:29:44.895Z,-0.24
2022-12-14T09:32:11.276Z,-0.25
2022-12-14T09:34:37.738Z,0.01
2022-12-14T09:37:07.377Z,-0.24
2022-12-14T09:39:34.446Z,0.11
2022-12-14T09:42:04.003Z,-0.23
2022-12-14T09:44:53.611Z,-0.59
2022-12-14T09:47:28.634Z,0.01
2022-12-14T09:50:07.159Z,0.22
2022-12-14T09:52:59.862Z,-0.09
2022-12-14T09:55:32.391Z,-0.20
2022-12-14T09:58:05.395Z,0.07
2022-12-14T10:00:35.902Z,0.61
2022-12-14T10:03:31.537Z,0.46
2022-12-14T10:06:16.701Z,-0.15
2022-12-14T10:08:56.131Z,-0.09
2022-12-14T10:11:55.360Z,-0.10
2022-12-14T10:14:30.557Z,-0.11
2022-12-14T10:17:13.873Z,-0.34
2022-12-14T10:19:52.729Z,-0.22
2022-12-14T10:22:23.041Z,0.01
2022-12-14T10:24:54.735Z,-0.23
2022-12-14T10:27:24.320Z,-0.64
2022-12-14T10:30:01.316Z,-0.45
2022-12-14T10:32:41.361Z,-0.50
2022-12-14T10:35:38.857Z,-0.96
2022-12-14T10:38:17.563Z,-0.43
2022-12-14T10:40:53.585Z,0.01
2022-12-14T10:43:44.412Z,-0.31
2022-12-14T10:46:35.893Z,-0.48
2022-12-14T10:49:11.194Z,-0.63
2022-12-14T10:51:42.421Z,-0.09
2022-12-14T10:54:20.627Z,-0.33
2022-12-14T10:56:49.902Z,-0.07
2022-12-14T10:59:23.865Z,0.10
2022-12-14T11:02:05.859Z,0.35
2022-12-14T11:04:51.113Z,-0.09
2022-12-14T11:07:20.507Z,0.58
2022-12-14T11:09:47.280Z,-0.16
2022-12-14T11:12:13.751Z,-0.34
2022-12-14T11:15:06.810Z,0.33
2022-12-14T11:17:42.812Z,0.50
2022-12-14T11:20:09.412Z,0.83
2022-12-14T11:22:44.662Z,0.66
2022-12-14T11:25:29.804Z,0.68
2022-12-14T11:27:59.442Z,0.76
2022-12-14T11:30:27.328Z,0.93
2022-12-14T11:32:53.916Z,0.64
2022-12-14T11:35:21.213Z,0.43
2022-12-14T11:37:57.640Z,0.81
2022-12-14T11:40:26.115Z,0.86
2022-12-14T11:43:01.417Z,0.42
2022-12-14T11:45:30.675Z,0.35
2022-12-14T11:48:10.903Z,0.67
2022-12-14T11:50:37.441Z,0.45
2022-12-14T11:53:11.278Z,1.09
2022-12-14T11:55:40.559Z,1.21
2022-12-14T11:58:20.157Z,0.83
2022-12-14T12:00:58.542Z,1.22
2022-12-14T12:03:31.157Z,1.24
2022-12-14T12:06:05.624Z,1.02
2022-12-14T12:08:38.177Z,0.72
2022-12-14T12:11:20.269Z,0.49
2022-12-14T12:13:51.081Z,0.78
2022-12-14T12:16:21.475Z,0.65
2022-12-14T12:18:52.729Z,0.39
2022-12-14T12:21:25.015Z,0.96
2022-12-14T12:24:04.627Z,0.77
2022-12-14T12:26:36.566Z,0.88
2022-12-14T12:29:11.713Z,0.67
2022-12-14T12:31:55.025Z,0.88
2022-12-14T12:34:31.393Z,0.91
2022-12-14T12:39:56.953Z,1.13
2022-12-14T12:42:43.120Z,1.39
2022-12-14T12:45:21.905Z,0.99
2022-12-14T12:47:54.799Z,0.93
2022-12-14T12:50:33.663Z,0.65
2022-12-14T12:53:30.279Z,1.18
2022-12-14T12:56:19.557Z,1.10
2022-12-14T12:58:52.662Z,1.33
2022-12-14T13:01:30.970Z,1.42
2022-12-14T13:04:02.888Z,1.61
2022-12-14T13:06:40.920Z,1.60
2022-12-14T13:09:27.889Z,1.23
2022-12-14T13:11:55.448Z,1.63
2022-12-14T13:14:30.733Z,1.65
2022-12-14T13:16:59.636Z,1.48
2022-12-14T13:19:54.691Z,1.58
2022-12-14T13:22:33.529Z,1.62
2022-12-14T13:25:07.334Z,1.51
2022-12-14T13:27:36.493Z,1.69
2022-12-14T13:30:06.048Z,1.55
2022-12-14T13:32:50.858Z,1.50
2022-12-14T13:35:35.749Z,1.43
2022-12-14T13:38:29.172Z,1.13
2022-12-14T13:41:23.246Z,0.98
2022-12-14T13:43:49.625Z,0.63
2022-12-14T13:46:27.316Z,1.30
2022-12-14T13:48:57.309Z,0.79
2022-12-14T13:51:31.790Z,0.98
2022-12-14T13:54:00.506Z,1.14
2022-12-14T13:56:33.322Z,1.22
2022-12-14T13:59:04.668Z,1.31
2022-12-14T14:01:46.208Z,0.79
2022-12-14T14:04:15.439Z,0.57
2022-12-14T14:06:44.026Z,0.40
2022-12-14T14:09:28.797Z,0.89
2022-12-14T14:12:34.952Z,0.60
2022-12-14T14:15:25.824Z,0.46
2022-12-14T14:17:54.802Z,0.78
2022-12-14T14:20:36.274Z,0.33
2022-12-14T14:23:15.319Z,0.20
2022-12-14T14:26:26.943Z,0.74
2022-12-14T14:29:15.593Z,0.72
2022-12-14T14:31:58.130Z,0.36
2022-12-14T14:34:27.580Z,0.45
2022-12-14T14:36:54.342Z,0.83
2022-12-14T14:42:23.113Z,0.60
2022-12-14T14:44:59.247Z,0.61
2022-12-14T14:47:35.714Z,0.52
2022-12-14T14:50:08.277Z,0.60
2022-12-14T14:52:37.796Z,0.60
2022-12-14T14:58:34.917Z,0.25
2022-12-14T15:01:21.550Z,0.40
2022-12-14T15:04:03.647Z,0.24
2022-12-14T15:06:33.409Z,-0.29
2022-12-14T15:09:24.119Z,-0.46
2022-12-14T15:12:00.976Z,-0.46
2022-12-14T15:14:46.644Z,-0.12
2022-12-14T15:17:21.925Z,0.14
2022-12-14T15:19:55.386Z,0.20
2022-12-14T15:22:25.678Z,0.04
2022-12-14T15:24:55.730Z,-0.04
2022-12-14T15:27:37.068Z,-0.61
2022-12-14T15:30:06.623Z,-0.31
2022-12-14T15:32:33.514Z,-0.40
2022-12-14T15:35:04.895Z,-0.09
2022-12-14T15:37:43.100Z,-1.07
2022-12-14T15:40:23.073Z,-0.75
2022-12-14T15:42:56.423Z,-0.78
2022-12-14T15:45:25.161Z,-0.56
2022-12-14T15:47:52.077Z,-0.54
2022-12-14T15:50:27.154Z,-0.39
2022-12-14T15:53:13.420Z,-0.24
2022-12-14T15:55:44.134Z,-0.37
2022-12-14T15:58:20.683Z,-0.75
2022-12-14T16:00:50.309Z,-0.76
2022-12-14T16:03:35.491Z,-0.89
2022-12-14T16:06:03.255Z,-1.08
2022-12-14T16:08:34.042Z,-1.16
2022-12-14T16:11:05.421Z,-0.89
2022-12-14T16:13:40.712Z,-0.82
2022-12-14T16:16:11.030Z,-0.80
2022-12-14T16:18:50.745Z,-0.82
2022-12-14T16:21:28.017Z,-0.85
2022-12-14T16:23:56.340Z,-0.79
2022-12-14T16:26:37.395Z,-0.98
2022-12-14T16:29:25.751Z,-0.96
2022-12-14T16:32:14.606Z,-0.98
2022-12-14T16:34:59.234Z,-0.89
2022-12-14T16:37:34.069Z,-1.17
2022-12-14T16:40:00.890Z,-1.35
2022-12-14T16:42:27.942Z,-1.23
2022-12-14T16:44:54.712Z,-1.43
2022-12-14T16:47:21.439Z,-1.51
2022-12-14T16:49:47.975Z,-1.56
2022-12-14T16:52:34.126Z,-1.58
2022-12-14T16:55:20.183Z,-1.33
2022-12-14T16:57:49.557Z,-1.36
2022-12-14T17:00:23.665Z,-1.67
2022-12-14T17:02:57.581Z,-2.17
2022-12-14T17:05:25.930Z,-1.90
2022-12-14T17:07:52.543Z,-2.18
2022-12-14T17:10:24.270Z,-1.69
2022-12-14T17:12:53.513Z,-1.92
2022-12-14T17:15:22.683Z,-2.19
2022-12-14T17:17:52.198Z,-2.07
2022-12-14T17:20:22.299Z,-1.94
2022-12-14T17:22:49.664Z,-2.00
2022-12-14T17:25:16.396Z,-1.93
2022-12-14T17:27:42.994Z,-1.77
2022-12-14T17:30:15.940Z,-1.70
2022-12-14T17:32:43.056Z,-1.73
2022-12-14T17:35:18.006Z,-1.66
2022-12-14T17:37:44.489Z,-1.65
2022-12-14T17:40:11.500Z,-1.69
2022-12-14T17:42:39.828Z,-1.73
2022-12-14T17:45:17.187Z,-1.78
2022-12-14T17:47:43.592Z,-1.74
2022-12-14T17:50:14.002Z,-1.74
2022-12-14T17:52:40.603Z,-1.92
2022-12-14T17:55:07.368Z,-1.94
2022-12-14T17:57:33.868Z,-2.04
2022-12-14T18:00:18.875Z,-1.94
2022-12-14T18:02:45.883Z,-2.22
2022-12-14T18:05:19.682Z,-2.28
2022-12-14T18:07:46.191Z,-2.22
2022-12-14T18:10:18.027Z,-2.50
2022-12-14T18:12:44.664Z,-2.88
2022-12-14T18:15:21.085Z,-3.06
2022-12-14T18:17:49.412Z,-3.15
2022-12-14T18:20:16.168Z,-3.13
2022-12-14T18:22:42.812Z,-3.02
2022-12-14T18:25:30.611Z,-2.92
2022-12-14T18:28:01.977Z,-3.22
2022-12-14T18:30:33.274Z,-3.18
2022-12-14T18:33:03.614Z,-2.76
2022-12-14T18:35:31.868Z,-3.09
2022-12-14T18:37:58.721Z,-2.64
2022-12-14T18:40:27.568Z,-2.88
2022-12-14T18:42:54.509Z,-2.90
2022-12-14T18:45:27.172Z,-2.74
2022-12-14T18:47:54.865Z,-3.00
2022-12-14T18:50:22.439Z,-3.14
2022-12-14T18:52:48.956Z,-3.44
2022-12-14T18:55:26.984Z,-3.18
2022-12-14T18:57:56.686Z,-3.38
2022-12-14T19:00:26.935Z,-3.54
2022-12-14T19:02:57.535Z,-3.49
2022-12-14T19:05:26.448Z,-3.32
2022-12-14T19:07:53.661Z,-3.40
2022-12-14T19:10:23.043Z,-3.06
2022-12-14T19:12:50.318Z,-3.33
2022-12-14T19:15:22.742Z,-3.37
2022-12-14T19:17:49.642Z,-3.02
2022-12-14T19:20:17.294Z,-2.99
2022-12-14T19:22:44.587Z,-2.97
2022-12-14T19:25:12.367Z,-3.02
2022-12-14T19:28:15.557Z,-3.38
2022-12-14T19:30:27.146Z,-3.63
2022-12-14T19:32:55.099Z,-3.44
2022-12-14T19:35:23.176Z,-3.23
2022-12-14T19:37:50.094Z,-3.40
2022-12-14T19:40:17.092Z,-3.34
2022-12-14T19:42:45.254Z,-3.35
2022-12-14T19:45:12.691Z,-3.54
2022-12-14T19:47:39.209Z,-3.33
2022-12-14T19:50:07.096Z,-3.39
2022-12-14T19:52:36.923Z,-3.48
2022-12-14T19:55:03.778Z,-3.58
2022-12-14T19:57:30.271Z,-3.67
2022-12-14T19:59:57.510Z,-3.50
2022-12-14T20:02:24.058Z,-3.51
2022-12-14T20:04:50.736Z,-3.49
2022-12-14T20:07:17.282Z,-3.61
2022-12-14T20:09:43.666Z,-3.56
2022-12-14T20:12:11.318Z,-3.55
2022-12-14T20:14:42.614Z,-3.56
2022-12-14T20:17:10.886Z,-3.63
2022-12-14T20:19:38.706Z,-3.41
2022-12-14T20:22:06.195Z,-3.45
2022-12-14T20:24:32.697Z,-3.37
2022-12-14T20:26:59.308Z,-3.48
2022-12-14T20:29:25.950Z,-3.53
2022-12-14T20:31:52.694Z,-3.50
2022-12-14T20:34:19.161Z,-3.45
2022-12-14T20:36:45.588Z,-3.34
2022-12-14T20:39:12.324Z,-3.37
2022-12-14T20:41:39.028Z,-3.25
2022-12-14T20:44:11.828Z,-3.41
2022-12-14T20:46:40.684Z,-3.39
2022-12-14T20:49:10.706Z,-3.37
2022-12-14T20:51:38.326Z,-3.48
2022-12-14T20:54:06.908Z,-3.38
2022-12-14T20:56:35.148Z,-3.57
2022-12-14T20:59:02.292Z,-3.69
2022-12-14T21:01:29.242Z,-3.74
2022-12-14T21:03:57.570Z,-3.56
2022-12-14T21:06:24.064Z,-3.82
2022-12-14T21:09:05.065Z,-3.98
2022-12-14T21:11:56.366Z,-3.73
2022-12-14T21:14:25.678Z,-3.62
2022-12-14T21:16:52.565Z,-3.55
2022-12-14T21:19:19.492Z,-3.57
2022-12-14T21:21:51.664Z,-3.77
2022-12-14T21:24:37.532Z,-3.83
2022-12-14T21:27:08.340Z,-3.77
2022-12-14T21:29:34.928Z,-3.79
2022-12-14T21:32:01.543Z,-3.79
2022-12-14T21:34:28.161Z,-3.76
2022-12-14T21:36:54.639Z,-3.78
2022-12-14T21:39:21.071Z,-3.80
2022-12-14T21:42:05.832Z,-3.84
2022-12-14T21:44:36.406Z,-3.71
2022-12-14T21:47:05.258Z,-4.09
2022-12-14T21:49:32.237Z,-3.95
2022-12-14T21:51:58.853Z,-3.77
2022-12-14T21:54:25.693Z,-3.75
2022-12-14T21:57:10.733Z,-3.80
2022-12-14T21:59:41.874Z,-3.81
2022-12-14T22:02:15.993Z,-3.93
2022-12-14T22:04:46.764Z,-3.82
2022-12-14T22:07:15.301Z,-3.94
2022-12-14T22:09:42.221Z,-3.91
2022-12-14T22:12:09.092Z,-4.01
2022-12-14T22:14:35.951Z,-3.96
2022-12-14T22:17:02.703Z,-3.86
2022-12-14T22:19:29.184Z,-3.80
2022-12-14T22:21:55.724Z,-4.01
2022-12-14T22:24:24.043Z,-3.92
2022-12-14T22:26:50.728Z,-3.89
2022-12-14T22:29:18.853Z,-3.83
2022-12-14T22:31:45.402Z,-3.92
2022-12-14T22:34:18.922Z,-4.00
2022-12-14T22:36:46.461Z,-4.09
2022-12-14T22:39:13.056Z,-4.24
2022-12-14T22:41:39.541Z,-4.28
2022-12-14T22:44:06.288Z,-4.51
2022-12-14T22:46:33.582Z,-4.24
2022-12-14T22:49:00.374Z,-4.38
2022-12-14T22:51:29.084Z,-4.29
2022-12-14T22:53:56.379Z,-4.18
2022-12-14T22:56:41.959Z,-4.18
2022-12-14T22:59:34.448Z,-4.12
2022-12-14T23:02:01.090Z,-4.12
2022-12-14T23:04:27.845Z,-4.11
2022-12-14T23:06:55.409Z,-4.08
2022-12-14T23:09:40.658Z,-4.03
2022-12-14T23:12:26.181Z,-4.22
2022-12-14T23:15:11.089Z,-4.34
2022-12-14T23:17:55.849Z,-4.28
2022-12-14T23:20:40.667Z,-4.25
2022-12-14T23:23:26.985Z,-4.33
2022-12-14T23:26:12.674Z,-4.26
2022-12-14T23:28:58.431Z,-4.20
2022-12-14T23:31:43.301Z,-4.17
2022-12-14T23:34:28.056Z,-4.23
2022-12-14T23:37:19.496Z,-4.14
2022-12-14T23:40:04.977Z,-4.17
2022-12-14T23:42:49.879Z,-4.26
2022-12-14T23:45:34.730Z,-4.24
2022-12-14T23:48:19.677Z,-4.19
2022-12-14T23:51:04.565Z,-4.08
2022-12-14T23:53:50.002Z,-4.06
2022-12-14T23:56:35.798Z,-4.07
2022-12-14T23:59:22.666Z,-4.29
